Time;durP1;ratioP1;P1;durP2;ratioP2;P2;SDS_P1;SDS_P2;PMS_P1;PMS_P2;Temp;Humidity;BMP_temperature;BMP_pressure;BME280_temperature;BME280_humidity;BME280_pressure;Samples;Min_cycle;Max_cycle;Signal;HPM_P1;HPM_P2
2023/01/09 00:00:03;;;;;;;7.38;2.15;;;6.70;99.90;;;;;;5051993;28;20049;-77
2023/01/09 00:02:28;;;;;;;7.18;2.40;;;6.90;99.90;;;;;;5036028;28;20041;-79
2023/01/09 00:04:54;;;;;;;5.28;2.25;;;6.80;99.90;;;;;;5073206;28;20058;-80
2023/01/09 00:07:20;;;;;;;6.95;2.30;;;6.70;99.90;;;;;;5036966;28;20088;-78
2023/01/09 00:09:45;;;;;;;5.15;2.63;;;6.70;99.90;;;;;;5050963;28;20039;-84
2023/01/09 00:12:11;;;;;;;7.45;2.40;;;6.80;99.90;;;;;;5067563;28;20061;-81
2023/01/09 00:14:37;;;;;;;7.60;2.53;;;7.00;99.90;;;;;;5038660;28;20341;-80
2023/01/09 00:17:02;;;;;;;4.30;2.00;;;6.80;99.90;;;;;;5036751;28;20048;-81
2023/01/09 00:19:30;;;;;;;8.75;2.30;;;7.10;99.90;;;;;;5028507;28;20522;-82
2023/01/09 00:21:55;;;;;;;4.63;1.58;;;6.90;99.90;;;;;;5045826;28;20040;-80
2023/01/09 00:24:21;;;;;;;6.18;1.40;;;6.80;99.90;;;;;;5032364;28;20045;-81
2023/01/09 00:26:47;;;;;;;4.07;1.10;;;7.00;99.90;;;;;;5039360;28;20048;-80
2023/01/09 00:29:12;;;;;;;4.55;1.02;;;6.80;99.90;;;;;;5056321;28;20046;-81
2023/01/09 00:31:39;;;;;;;3.35;0.90;;;6.80;99.90;;;;;;5065525;28;20025;-81
2023/01/09 00:34:09;;;;;;;1.83;0.80;;;6.70;99.90;;;;;;5020445;28;20134;-81
2023/01/09 00:36:35;;;;;;;2.42;0.70;;;6.60;99.90;;;;;;5034505;28;20053;-82
2023/01/09 00:39:01;;;;;;;3.83;0.70;;;6.80;99.90;;;;;;5052453;28;20056;-81
2023/01/09 00:41:36;;;;;;;2.05;0.40;;;6.60;99.90;;;;;;5052255;28;20040;-84
2023/01/09 00:44:16;;;;;;;2.92;0.63;;;6.70;99.90;;;;;;5049700;28;20048;-83
2023/01/09 00:46:47;;;;;;;3.08;0.45;;;6.80;99.90;;;;;;5027297;28;20096;-81
2023/01/09 00:49:15;;;;;;;4.13;0.40;;;6.60;99.90;;;;;;5055625;28;20101;-83
2023/01/09 00:51:42;;;;;;;1.00;0.45;;;6.80;99.90;;;;;;5019322;28;20044;-82
2023/01/09 00:54:14;;;;;;;1.73;0.40;;;6.70;99.90;;;;;;5016677;28;20060;-80
2023/01/09 00:56:40;;;;;;;0.98;0.50;;;6.70;99.90;;;;;;5028955;28;20078;-82
2023/01/09 00:59:06;;;;;;;2.30;0.60;;;6.50;99.90;;;;;;5054908;28;20351;-81
2023/01/09 01:01:32;;;;;;;1.38;0.80;;;6.60;99.90;;;;;;5025006;28;20093;-81
2023/01/09 01:07:37;;;;;;;2.88;0.80;;;6.60;99.90;;;;;;5062098;28;20049;-82
2023/01/09 01:09:28;;;;;;;4.38;0.85;;;6.50;99.90;;;;;;5051243;28;20419;-79
2023/01/09 01:11:54;;;;;;;2.67;0.70;;;6.40;99.90;;;;;;5056360;28;20040;-80
2023/01/09 01:14:19;;;;;;;2.90;0.68;;;6.20;99.90;;;;;;5039633;28;20190;-83
2023/01/09 01:16:45;;;;;;;3.08;0.93;;;6.30;99.90;;;;;;5035950;28;20104;-80
2023/01/09 01:19:11;;;;;;;2.47;0.80;;;6.40;99.90;;;;;;5017211;28;20080;-83
2023/01/09 01:21:37;;;;;;;1.75;0.60;;;6.40;99.90;;;;;;5020476;28;20049;-81
2023/01/09 01:24:03;;;;;;;1.45;0.60;;;6.30;99.90;;;;;;5037040;28;20045;-81
2023/01/09 01:26:30;;;;;;;5.05;0.50;;;6.10;99.90;;;;;;5027700;28;20049;-80
2023/01/09 01:28:58;;;;;;;3.05;0.60;;;6.30;99.90;;;;;;5024508;28;20087;-80
2023/01/09 01:31:23;;;;;;;2.35;0.60;;;6.30;99.90;;;;;;5018599;28;20044;-78
2023/01/09 01:33:49;;;;;;;1.70;0.45;;;6.30;99.90;;;;;;5034434;28;20449;-81
2023/01/09 01:36:16;;;;;;;2.05;0.73;;;6.10;99.90;;;;;;5017814;28;20041;-82
2023/01/09 01:38:42;;;;;;;2.22;0.63;;;6.10;99.90;;;;;;5035393;28;20071;-80
2023/01/09 01:41:08;;;;;;;1.70;0.70;;;6.40;99.90;;;;;;5012251;28;20522;-81
2023/01/09 01:43:51;;;;;;;2.13;0.95;;;6.10;99.90;;;;;;5052302;28;20365;-81
2023/01/09 01:46:18;;;;;;;3.90;1.20;;;6.30;99.90;;;;;;5018532;28;20049;-80
2023/01/09 01:48:44;;;;;;;3.75;1.08;;;6.50;99.90;;;;;;5034936;28;20116;-81
2023/01/09 01:51:10;;;;;;;3.17;1.10;;;6.10;99.90;;;;;;5051583;28;20512;-82
2023/01/09 01:53:41;;;;;;;3.35;1.30;;;6.40;99.90;;;;;;5019516;28;20067;-84
2023/01/09 01:56:07;;;;;;;5.45;1.23;;;6.30;99.90;;;;;;5019542;28;20040;-79
2023/01/09 01:58:40;;;;;;;6.20;1.40;;;6.50;99.90;;;;;;5054951;28;20094;-83
2023/01/09 02:01:06;;;;;;;6.25;1.70;;;6.40;99.90;;;;;;5051831;28;20045;-81
2023/01/09 02:03:33;;;;;;;1.70;1.42;;;6.10;99.90;;;;;;5054306;28;20055;-80
2023/01/09 02:05:58;;;;;;;5.03;1.70;;;6.30;99.90;;;;;;5052381;28;20033;-80
2023/01/09 02:08:24;;;;;;;6.22;1.40;;;6.10;99.90;;;;;;5018835;28;20049;-82
2023/01/09 02:10:51;;;;;;;6.00;1.88;;;6.10;99.90;;;;;;5031122;28;20518;-82
2023/01/09 02:13:18;;;;;;;6.45;1.73;;;6.50;99.90;;;;;;5053423;28;20091;-79
2023/01/09 02:15:52;;;;;;;5.68;1.75;;;6.50;99.90;;;;;;5062772;28;20128;-80
2023/01/09 02:18:37;;;;;;;6.13;1.85;;;6.10;99.90;;;;;;5054969;28;20053;-83
2023/01/09 02:21:06;;;;;;;5.07;1.63;;;6.30;99.90;;;;;;5025604;28;20497;-82
2023/01/09 02:24:08;;;;;;;3.53;1.90;;;6.10;99.90;;;;;;5033780;28;20129;-82
2023/01/09 02:27:06;;;;;;;4.88;1.80;;;6.00;99.90;;;;;;5011447;28;20492;-83
2023/01/09 02:30:09;;;;;;;8.02;2.00;;;5.90;99.90;;;;;;4997123;28;20482;-83
2023/01/09 02:33:12;;;;;;;9.00;2.13;;;6.20;99.90;;;;;;4995805;28;20046;-83
2023/01/09 02:36:24;;;;;;;6.28;1.98;;;6.10;99.90;;;;;;4995936;28;20449;-80
2023/01/09 02:39:19;;;;;;;5.97;1.90;;;5.90;99.90;;;;;;5000200;28;20041;-81
2023/01/09 02:42:01;;;;;;;5.32;2.22;;;5.70;99.90;;;;;;5010528;28;20052;-82
2023/01/09 02:44:29;;;;;;;6.85;2.08;;;5.70;99.90;;;;;;5035657;28;20045;-82
2023/01/09 02:47:19;;;;;;;7.22;2.05;;;5.90;99.90;;;;;;4999665;28;20057;-80
2023/01/09 02:49:45;;;;;;;4.82;2.30;;;5.80;99.90;;;;;;5002490;28;20458;-81
2023/01/09 02:52:44;;;;;;;12.82;2.20;;;6.10;99.90;;;;;;5001943;28;20114;-83
2023/01/09 02:55:30;;;;;;;8.27;2.55;;;5.50;99.90;;;;;;4992434;28;20042;-81
2023/01/09 02:58:20;;;;;;;7.75;2.40;;;5.50;99.90;;;;;;4991619;28;20084;-83
2023/01/09 03:00:49;;;;;;;4.47;2.10;;;5.80;99.90;;;;;;4998195;28;20445;-82
2023/01/09 03:03:37;;;;;;;8.15;2.30;;;5.50;99.90;;;;;;5002083;28;20444;-84
2023/01/09 03:06:12;;;;;;;8.50;2.28;;;5.40;99.90;;;;;;5015265;28;20427;-83
2023/01/09 03:08:45;;;;;;;8.57;2.28;;;5.30;99.90;;;;;;4976496;28;20057;-82
2023/01/09 03:11:11;;;;;;;6.95;2.10;;;5.80;99.90;;;;;;4989159;28;20212;-83
2023/01/09 03:13:58;;;;;;;6.25;2.20;;;5.20;99.90;;;;;;4996274;28;20129;-83
2023/01/09 03:16:28;;;;;;;5.82;2.00;;;5.40;99.90;;;;;;5007759;28;20132;-82
2023/01/09 03:18:57;;;;;;;7.63;2.45;;;5.70;99.90;;;;;;4992269;28;20183;-78
2023/01/09 03:21:24;;;;;;;7.22;2.58;;;5.40;99.90;;;;;;5017576;28;20059;-80
2023/01/09 03:23:54;;;;;;;7.65;2.60;;;5.70;99.90;;;;;;5027214;28;20056;-84
2023/01/09 03:26:22;;;;;;;8.57;2.60;;;5.70;99.90;;;;;;5006549;28;20049;-81
2023/01/09 03:28:48;;;;;;;11.00;2.70;;;5.40;99.90;;;;;;5043520;28;20028;-80
2023/01/09 03:31:14;;;;;;;5.75;2.22;;;5.20;99.90;;;;;;5022215;28;20033;-79
2023/01/09 03:33:40;;;;;;;13.23;2.67;;;5.20;99.90;;;;;;5028952;28;20056;-79
2023/01/09 03:36:24;;;;;;;7.95;2.97;;;5.60;99.90;;;;;;5081502;28;20041;-83
2023/01/09 03:38:52;;;;;;;11.07;2.90;;;5.50;99.90;;;;;;5055451;28;20041;-79
2023/01/09 03:41:19;;;;;;;10.00;2.60;;;5.30;99.90;;;;;;5058163;28;20047;-84
2023/01/09 03:43:46;;;;;;;7.43;2.95;;;5.00;99.90;;;;;;5055645;28;20047;-82
2023/01/09 03:46:12;;;;;;;8.73;2.55;;;5.50;99.90;;;;;;5022063;28;20059;-81
2023/01/09 03:48:38;;;;;;;10.95;2.90;;;4.90;99.90;;;;;;5019165;28;20480;-81
2023/01/09 03:54:29;;;;;;;10.60;3.10;;;5.10;99.90;;;;;;5017917;28;20064;-83
2023/01/09 03:56:54;;;;;;;10.05;2.72;;;4.90;99.90;;;;;;5037772;28;20059;-82
2023/01/09 03:59:20;;;;;;;4.93;2.55;;;5.00;99.90;;;;;;5024213;28;20044;-83
2023/01/09 04:01:46;;;;;;;11.07;3.40;;;4.80;99.90;;;;;;5057817;28;20090;-83
2023/01/09 04:04:11;;;;;;;10.70;3.85;;;5.30;99.90;;;;;;5041366;28;20075;-82
2023/01/09 04:06:37;;;;;;;10.45;3.13;;;5.10;99.90;;;;;;5033513;28;20590;-80
2023/01/09 04:09:04;;;;;;;10.23;3.50;;;4.80;99.90;;;;;;5036005;28;20090;-82
2023/01/09 04:11:30;;;;;;;11.63;4.10;;;4.70;99.90;;;;;;5044648;28;20541;-78
2023/01/09 04:13:58;;;;;;;8.13;4.00;;;4.80;99.90;;;;;;5036832;28;20091;-81
2023/01/09 04:16:24;;;;;;;10.50;3.90;;;5.20;99.90;;;;;;5020801;28;20497;-80
2023/01/09 04:18:50;;;;;;;12.07;4.10;;;4.90;99.90;;;;;;5037938;28;20132;-79
2023/01/09 04:21:16;;;;;;;12.20;4.18;;;4.90;99.90;;;;;;5028559;28;20044;-79
2023/01/09 04:23:41;;;;;;;9.52;3.95;;;5.10;99.90;;;;;;5051673;28;20057;-81
2023/01/09 04:26:07;;;;;;;10.50;4.70;;;4.80;99.90;;;;;;5036186;28;20052;-80
2023/01/09 04:28:33;;;;;;;11.68;4.50;;;4.90;99.90;;;;;;5031295;28;20071;-84
2023/01/09 04:30:58;;;;;;;15.23;5.40;;;5.10;99.90;;;;;;5032946;28;20047;-82
2023/01/09 04:33:24;;;;;;;8.43;4.85;;;5.00;99.90;;;;;;5056145;28;20037;-78
2023/01/09 04:35:50;;;;;;;17.35;4.97;;;5.00;99.90;;;;;;5058482;28;20085;-80
2023/01/09 04:38:15;;;;;;;13.07;4.82;;;5.10;99.90;;;;;;5051979;28;20520;-84
2023/01/09 04:40:41;;;;;;;15.02;4.82;;;4.90;99.90;;;;;;5053446;28;20040;-81
2023/01/09 04:43:07;;;;;;;11.85;5.22;;;5.10;99.90;;;;;;5019528;28;20060;-82
2023/01/09 04:45:34;;;;;;;11.75;5.18;;;4.70;99.90;;;;;;5048801;28;20044;-82
2023/01/09 04:47:59;;;;;;;20.08;5.70;;;4.80;99.90;;;;;;4999757;28;20103;-81
2023/01/09 04:50:25;;;;;;;14.38;5.60;;;5.10;99.90;;;;;;5013657;28;20071;-80
2023/01/09 04:52:51;;;;;;;10.73;5.65;;;5.10;99.90;;;;;;5053284;28;20033;-83
2023/01/09 04:55:16;;;;;;;15.73;5.93;;;4.70;99.90;;;;;;5017572;28;20474;-80
2023/01/09 04:57:42;;;;;;;11.95;5.93;;;4.70;99.90;;;;;;5014262;28;20048;-78
2023/01/09 05:00:10;;;;;;;12.70;5.43;;;4.80;99.90;;;;;;5033372;28;20033;-80
2023/01/09 05:02:36;;;;;;;11.20;5.78;;;4.50;99.90;;;;;;5033621;28;20060;-82
2023/01/09 05:05:05;;;;;;;20.77;7.10;;;4.60;99.90;;;;;;5051862;28;20029;-81
2023/01/09 05:07:31;;;;;;;14.30;6.45;;;4.60;99.90;;;;;;5052889;28;20063;-83
2023/01/09 05:09:57;;;;;;;15.00;6.63;;;4.90;99.90;;;;;;5051969;28;20384;-83
2023/01/09 05:12:22;;;;;;;12.65;6.70;;;4.60;99.90;;;;;;5051160;28;20037;-80
2023/01/09 05:14:48;;;;;;;13.80;7.13;;;4.90;99.90;;;;;;5035691;28;20450;-83
2023/01/09 05:17:14;;;;;;;23.33;8.07;;;4.40;99.90;;;;;;5019895;28;20033;-81
2023/01/09 05:19:40;;;;;;;17.50;7.82;;;4.70;99.90;;;;;;5052915;28;20441;-82
2023/01/09 05:22:05;;;;;;;20.55;9.35;;;4.40;99.90;;;;;;5036499;28;20048;-79
2023/01/09 05:24:31;;;;;;;19.05;9.07;;;4.40;99.90;;;;;;5033884;28;20045;-82
2023/01/09 05:26:58;;;;;;;18.00;10.15;;;4.60;99.90;;;;;;5051794;28;20041;-81
2023/01/09 05:29:24;;;;;;;20.77;10.00;;;4.90;99.90;;;;;;5034880;28;20484;-83
2023/01/09 05:31:51;;;;;;;21.52;10.40;;;4.50;99.90;;;;;;5050806;28;20090;-81
2023/01/09 05:34:17;;;;;;;25.23;11.10;;;4.90;99.90;;;;;;5037718;28;20132;-80
2023/01/09 05:36:42;;;;;;;19.15;10.77;;;4.60;99.90;;;;;;5014801;28;20136;-81
2023/01/09 05:39:08;;;;;;;20.02;11.77;;;4.80;99.90;;;;;;5062710;28;20056;-83
2023/01/09 05:41:34;;;;;;;23.58;12.35;;;4.70;99.90;;;;;;5016153;28;20380;-84
2023/01/09 05:44:00;;;;;;;25.42;11.90;;;5.10;99.90;;;;;;5067628;28;20041;-81
2023/01/09 05:46:25;;;;;;;22.48;12.18;;;5.30;99.90;;;;;;5018638;28;20120;-81
2023/01/09 05:48:51;;;;;;;29.10;13.32;;;5.30;99.90;;;;;;5019155;28;20036;-84
2023/01/09 05:52:13;;;;;;;29.65;14.65;;;5.30;99.90;;;;;;5069605;28;20550;-80
2023/01/09 05:54:38;;;;;;;29.38;15.15;;;5.40;99.90;;;;;;5043513;28;20037;-79
2023/01/09 05:57:05;;;;;;;28.40;16.35;;;5.40;99.90;;;;;;5038498;28;20100;-82
2023/01/09 05:59:31;;;;;;;28.52;16.63;;;5.30;99.90;;;;;;5035351;28;20049;-79
2023/01/09 06:01:56;;;;;;;26.92;17.02;;;5.10;99.90;;;;;;5043656;28;20136;-79
2023/01/09 06:04:22;;;;;;;31.52;17.92;;;5.40;99.90;;;;;;5024109;28;20045;-79
2023/01/09 06:06:48;;;;;;;27.67;18.88;;;5.40;99.90;;;;;;5017385;28;20130;-79
2023/01/09 06:09:14;;;;;;;28.00;17.40;;;5.50;99.90;;;;;;4998341;28;20038;-79
2023/01/09 06:11:39;;;;;;;31.48;18.95;;;5.20;99.90;;;;;;5014336;28;20034;-83
2023/01/09 06:14:05;;;;;;;30.85;19.08;;;5.60;99.90;;;;;;5022173;28;20419;-78
2023/01/09 06:16:31;;;;;;;33.10;19.00;;;5.70;99.90;;;;;;5041315;28;20041;-83
2023/01/09 06:18:57;;;;;;;33.75;18.27;;;5.30;99.90;;;;;;5066154;28;20113;-80
2023/01/09 06:21:23;;;;;;;29.20;18.08;;;5.60;99.90;;;;;;5034047;28;20136;-80
2023/01/09 06:23:49;;;;;;;32.28;18.58;;;5.30;99.90;;;;;;5043754;28;20037;-83
2023/01/09 06:26:14;;;;;;;35.28;18.48;;;5.50;99.90;;;;;;5056852;28;20617;-83
2023/01/09 06:28:40;;;;;;;35.10;18.50;;;5.40;99.90;;;;;;5041758;28;20055;-82
2023/01/09 06:31:06;;;;;;;33.90;19.63;;;5.80;99.90;;;;;;5024190;28;20041;-77
2023/01/09 06:33:31;;;;;;;35.05;18.52;;;5.50;99.90;;;;;;5024580;28;20423;-79
2023/01/09 06:35:57;;;;;;;26.85;16.92;;;5.90;99.90;;;;;;5041209;28;20115;-82
2023/01/09 06:38:23;;;;;;;25.45;16.52;;;5.80;99.90;;;;;;5057327;28;20456;-79
2023/01/09 06:40:49;;;;;;;29.77;16.25;;;5.40;99.90;;;;;;5038078;28;20136;-82
2023/01/09 06:43:15;;;;;;;22.33;14.07;;;5.90;99.90;;;;;;5022112;28;20101;-80
2023/01/09 06:45:42;;;;;;;28.83;16.15;;;5.50;99.90;;;;;;5020433;28;20124;-83
2023/01/09 06:48:09;;;;;;;32.58;16.42;;;5.80;99.90;;;;;;5052104;28;20037;-80
2023/01/09 06:50:34;;;;;;;29.90;16.50;;;5.70;99.90;;;;;;5035225;28;20043;-79
2023/01/09 06:53:00;;;;;;;25.45;16.27;;;5.70;99.90;;;;;;5020154;28;20367;-77
2023/01/09 06:55:26;;;;;;;25.50;16.23;;;5.50;99.90;;;;;;5033390;28;20052;-79
2023/01/09 06:57:52;;;;;;;26.40;16.65;;;5.50;99.90;;;;;;5033977;28;20337;-83
2023/01/09 07:00:18;;;;;;;21.77;15.20;;;5.50;99.90;;;;;;5031945;28;20048;-80
2023/01/09 07:02:44;;;;;;;29.08;15.80;;;5.70;99.90;;;;;;5021582;28;20334;-80
2023/01/09 07:05:10;;;;;;;33.00;16.10;;;5.50;99.90;;;;;;5019177;28;20041;-80
2023/01/09 07:07:37;;;;;;;29.42;16.52;;;5.90;99.90;;;;;;5021361;28;20045;-79
2023/01/09 07:10:04;;;;;;;26.42;16.33;;;5.50;99.90;;;;;;5020135;28;20037;-80
2023/01/09 07:12:29;;;;;;;28.88;15.32;;;5.50;99.90;;;;;;5019665;28;20049;-80
2023/01/09 07:14:55;;;;;;;24.63;15.15;;;5.60;99.90;;;;;;5043252;28;20056;-81
2023/01/09 07:17:21;;;;;;;25.00;14.70;;;5.90;99.90;;;;;;5014278;28;20048;-81
2023/01/09 07:24:12;;;;;;;23.75;14.35;;;5.40;99.90;;;;;;5047440;28;20522;-80
2023/01/09 07:26:37;;;;;;;22.70;14.23;;;5.80;99.90;;;;;;5033892;28;20100;-80
2023/01/09 07:29:06;;;;;;;22.70;13.63;;;5.60;99.90;;;;;;5014495;28;20923;-78
2023/01/09 07:31:33;;;;;;;20.40;13.48;;;5.80;99.90;;;;;;5023717;28;20099;-80
2023/01/09 07:33:58;;;;;;;25.92;13.43;;;5.40;99.90;;;;;;5029448;28;20052;-79
2023/01/09 07:36:25;;;;;;;23.52;13.70;;;5.80;99.90;;;;;;5041834;28;20052;-78
2023/01/09 07:38:51;;;;;;;20.73;13.68;;;5.60;99.90;;;;;;5033498;28;20431;-78
2023/01/09 07:41:18;;;;;;;23.25;13.48;;;5.70;99.90;;;;;;5039347;28;20041;-75
2023/01/09 07:43:43;;;;;;;21.63;13.18;;;5.70;99.90;;;;;;5024483;28;20529;-79
2023/01/09 07:46:09;;;;;;;23.48;12.70;;;5.40;99.90;;;;;;5040946;28;20052;-78
2023/01/09 07:48:35;;;;;;;21.98;12.35;;;5.40;99.90;;;;;;5022205;28;20045;-77
2023/01/09 07:51:00;;;;;;;19.83;11.45;;;5.40;99.90;;;;;;5069977;28;20037;-78
2023/01/09 07:53:26;;;;;;;21.58;12.43;;;5.50;99.90;;;;;;5054102;28;20353;-81
2023/01/09 07:55:52;;;;;;;24.85;11.77;;;5.70;99.90;;;;;;5012971;28;20033;-80
2023/01/09 07:58:17;;;;;;;17.45;11.02;;;5.40;99.90;;;;;;5012646;28;20039;-81
2023/01/09 08:00:44;;;;;;;21.98;10.40;;;5.50;99.90;;;;;;5043586;28;20507;-79
2023/01/09 08:03:10;;;;;;;15.80;10.13;;;5.60;99.90;;;;;;4994779;28;20114;-79
2023/01/09 08:05:36;;;;;;;19.50;9.98;;;5.70;99.90;;;;;;5053703;28;20495;-84
2023/01/09 08:08:03;;;;;;;17.33;9.68;;;5.60;99.90;;;;;;5035244;28;20044;-79
2023/01/09 08:10:29;;;;;;;15.77;9.77;;;5.60;99.90;;;;;;5035120;28;20049;-80
2023/01/09 08:12:54;;;;;;;21.73;9.95;;;5.60;99.90;;;;;;5055978;28;20089;-82
2023/01/09 08:15:21;;;;;;;21.17;10.02;;;5.30;99.90;;;;;;5046863;28;20384;-79
2023/01/09 08:17:47;;;;;;;13.90;9.05;;;5.20;99.90;;;;;;5038328;28;20045;-80
2023/01/09 08:20:14;;;;;;;18.55;9.02;;;5.50;99.90;;;;;;5037962;28;20053;-77
2023/01/09 08:22:41;;;;;;;16.13;8.80;;;5.20;99.90;;;;;;5005412;28;20080;-81
2023/01/09 08:25:07;;;;;;;20.40;9.02;;;5.30;99.90;;;;;;4999527;28;20073;-81
2023/01/09 08:27:33;;;;;;;15.80;9.27;;;5.60;99.90;;;;;;5048004;28;20084;-79
2023/01/09 08:29:59;;;;;;;18.65;8.93;;;5.20;99.90;;;;;;5044199;28;20518;-80
2023/01/09 08:32:25;;;;;;;19.80;9.18;;;5.80;99.90;;;;;;5025183;28;20060;-82
2023/01/09 08:34:51;;;;;;;13.70;9.20;;;5.40;99.90;;;;;;5008000;28;20477;-82
2023/01/09 08:37:17;;;;;;;16.17;9.40;;;5.40;99.90;;;;;;5014901;28;20111;-81
2023/01/09 08:39:43;;;;;;;16.05;8.68;;;5.60;99.90;;;;;;5035822;28;20476;-82
2023/01/09 08:47:38;;;;;;;15.70;7.85;;;5.40;99.90;;;;;;5008168;28;20139;-81
2023/01/09 08:50:04;;;;;;;14.85;8.13;;;5.80;99.90;;;;;;5007877;28;20053;-78
2023/01/09 08:52:30;;;;;;;13.50;7.50;;;5.80;99.90;;;;;;5013497;28;20036;-81
2023/01/09 08:54:56;;;;;;;13.15;7.18;;;5.80;99.90;;;;;;4997089;28;20400;-80
2023/01/09 08:57:22;;;;;;;14.80;6.93;;;5.40;99.90;;;;;;5008701;28;20375;-78
2023/01/09 08:59:47;;;;;;;13.20;7.15;;;5.50;99.90;;;;;;5005788;28;20088;-79
2023/01/09 09:02:13;;;;;;;15.23;7.10;;;6.00;99.90;;;;;;5010164;28;20045;-78
2023/01/09 09:04:39;;;;;;;16.67;7.22;;;5.70;99.90;;;;;;5009535;28;20091;-80
2023/01/09 09:07:05;;;;;;;13.43;6.85;;;5.50;99.90;;;;;;5044319;28;20041;-80
2023/01/09 09:09:31;;;;;;;14.60;6.97;;;5.70;99.90;;;;;;4991299;28;20037;-82
2023/01/09 09:11:57;;;;;;;12.82;6.50;;;5.70;99.90;;;;;;5008238;28;20123;-79
2023/01/09 09:17:07;;;;;;;16.42;5.97;;;5.80;99.90;;;;;;5005523;28;20045;-79
2023/01/09 09:19:34;;;;;;;18.17;6.53;;;5.80;99.90;;;;;;5027912;28;20049;-79
2023/01/09 09:21:59;;;;;;;15.25;6.00;;;6.10;99.90;;;;;;5048082;28;20056;-80
2023/01/09 09:24:25;;;;;;;13.18;5.68;;;6.20;99.90;;;;;;5039120;28;20548;-79
2023/01/09 09:26:50;;;;;;;19.67;5.68;;;6.20;99.90;;;;;;5061882;28;20036;-81
2023/01/09 09:29:16;;;;;;;13.88;5.35;;;6.00;99.90;;;;;;5044811;28;20045;-82
2023/01/09 09:31:42;;;;;;;11.95;5.50;;;6.00;99.90;;;;;;5046812;28;20456;-79
2023/01/09 09:34:09;;;;;;;12.90;5.00;;;6.00;99.90;;;;;;5045793;28;20365;-80
2023/01/09 09:36:35;;;;;;;9.38;4.78;;;5.90;99.90;;;;;;5015554;28;20036;-82
2023/01/09 09:39:01;;;;;;;8.35;4.78;;;6.10;99.90;;;;;;5030099;28;20440;-78
2023/01/09 09:44:42;;;;;;;11.65;4.80;;;6.00;99.90;;;;;;5048387;28;20229;-77
2023/01/09 09:47:42;;;;;;;11.75;4.88;;;6.00;99.90;;;;;;5021930;28;20049;-81
2023/01/09 09:50:35;;;;;;;13.25;4.65;;;6.40;99.90;;;;;;5031881;28;20055;-82
2023/01/09 09:53:16;;;;;;;11.95;4.35;;;6.30;99.90;;;;;;5009458;28;20056;-78
2023/01/09 09:55:44;;;;;;;12.05;4.55;;;6.10;99.90;;;;;;5024651;28;20476;-77
2023/01/09 09:58:27;;;;;;;12.88;4.88;;;6.10;99.90;;;;;;5012836;28;20404;-81
2023/01/09 10:00:56;;;;;;;10.43;4.55;;;6.30;99.90;;;;;;5038141;28;20071;-78
2023/01/09 10:03:37;;;;;;;11.85;3.92;;;6.50;99.90;;;;;;5029352;28;20060;-83
2023/01/09 10:06:27;;;;;;;8.00;4.15;;;6.20;99.90;;;;;;5013534;28;20052;-79
2023/01/09 10:09:19;;;;;;;13.38;4.38;;;6.30;99.90;;;;;;5031568;28;20037;-81
2023/01/09 10:11:49;;;;;;;13.90;4.07;;;6.30;99.90;;;;;;5014469;28;20170;-78
2023/01/09 10:14:15;;;;;;;10.73;4.28;;;6.30;99.90;;;;;;5048930;28;20040;-80
2023/01/09 10:17:10;;;;;;;13.18;4.30;;;6.50;99.90;;;;;;5018182;28;20119;-79
2023/01/09 10:19:42;;;;;;;11.98;4.47;;;6.80;99.90;;;;;;5045613;28;20065;-79
2023/01/09 10:22:20;;;;;;;9.27;4.28;;;6.80;99.90;;;;;;5012445;28;20047;-79
2023/01/09 10:24:54;;;;;;;9.25;3.78;;;6.70;99.90;;;;;;5031723;28;20045;-81
2023/01/09 10:27:58;;;;;;;11.55;3.92;;;6.50;99.90;;;;;;5063599;28;20053;-80
2023/01/09 10:30:26;;;;;;;10.73;4.00;;;6.50;99.90;;;;;;5023342;28;20117;-78
2023/01/09 10:33:05;;;;;;;8.18;3.78;;;7.00;99.90;;;;;;5069347;28;20106;-79
2023/01/09 10:35:51;;;;;;;10.50;4.25;;;6.70;99.90;;;;;;5051225;28;20045;-78
2023/01/09 10:38:22;;;;;;;9.73;4.18;;;6.70;99.90;;;;;;5046545;28;20166;-83
2023/01/09 10:41:11;;;;;;;11.88;4.20;;;6.80;99.90;;;;;;4995426;28;20096;-78
2023/01/09 10:43:55;;;;;;;12.15;3.75;;;7.00;99.90;;;;;;4983148;28;22175;-80
2023/01/09 10:46:46;;;;;;;10.35;3.65;;;7.00;99.90;;;;;;4962783;28;20133;-80
2023/01/09 10:49:16;;;;;;;11.48;4.00;;;6.70;99.90;;;;;;4962361;28;20048;-82
2023/01/09 10:51:51;;;;;;;9.60;3.50;;;7.20;99.90;;;;;;4934226;28;20410;-78
2023/01/09 10:54:22;;;;;;;9.77;3.63;;;6.80;99.90;;;;;;4949045;28;20142;-78
2023/01/09 10:57:06;;;;;;;8.82;3.90;;;7.10;99.90;;;;;;4933901;28;20085;-82
2023/01/09 10:59:31;;;;;;;11.70;3.60;;;7.10;99.90;;;;;;4931079;28;20055;-81
2023/01/09 11:01:58;;;;;;;11.45;3.50;;;6.90;99.90;;;;;;4949290;28;20458;-83
2023/01/09 11:04:30;;;;;;;6.13;3.35;;;7.10;99.90;;;;;;4946680;28;20055;-79
2023/01/09 11:07:06;;;;;;;11.07;3.85;;;6.90;99.90;;;;;;4951794;28;20063;-83
2023/01/09 11:09:54;;;;;;;8.90;3.25;;;6.90;99.90;;;;;;4965066;28;20492;-78
2023/01/09 11:12:25;;;;;;;13.32;3.55;;;7.00;99.90;;;;;;4956718;28;20454;-81
2023/01/09 11:14:51;;;;;;;11.02;4.82;;;7.30;99.90;;;;;;4950752;28;20054;-81
2023/01/09 11:17:25;;;;;;;13.52;4.15;;;6.80;99.90;;;;;;4937828;28;20050;-79
2023/01/09 11:20:09;;;;;;;14.50;6.13;;;6.80;99.90;;;;;;4957866;28;20064;-81
2023/01/09 11:22:56;;;;;;;9.95;4.38;;;6.80;99.90;;;;;;4989539;28;20316;-79
2023/01/09 11:25:24;;;;;;;9.85;3.70;;;6.80;99.90;;;;;;5013564;28;20045;-78
2023/01/09 11:28:03;;;;;;;11.50;4.93;;;7.10;99.90;;;;;;5069008;28;20080;-79
2023/01/09 11:30:36;;;;;;;12.35;4.03;;;6.80;99.90;;;;;;5026733;28;20045;-79
2023/01/09 11:33:19;;;;;;;6.18;3.80;;;7.10;99.90;;;;;;5016651;28;20037;-80
2023/01/09 11:36:23;;;;;;;9.93;3.78;;;7.20;99.90;;;;;;5037940;28;20057;-80
2023/01/09 11:38:52;;;;;;;8.02;3.88;;;7.20;99.90;;;;;;4955289;28;20109;-78
2023/01/09 11:41:22;;;;;;;9.30;4.10;;;6.80;99.90;;;;;;4968423;28;20053;-80
2023/01/09 11:43:50;;;;;;;8.13;3.92;;;6.90;99.90;;;;;;4970267;28;20050;-78
2023/01/09 11:46:32;;;;;;;17.17;4.18;;;7.10;99.90;;;;;;4950218;28;20581;-80
2023/01/09 11:49:00;;;;;;;11.13;4.50;;;7.10;99.90;;;;;;4973388;28;20185;-79
2023/01/09 11:51:29;;;;;;;8.68;4.15;;;6.80;99.90;;;;;;4986998;28;20074;-78
2023/01/09 11:54:18;;;;;;;11.80;3.65;;;6.80;99.90;;;;;;4975574;28;20038;-83
2023/01/09 11:56:45;;;;;;;15.95;4.65;;;6.80;99.90;;;;;;4972546;28;20129;-79
2023/01/09 11:59:17;;;;;;;12.98;4.72;;;7.00;99.90;;;;;;4973901;28;20047;-80
2023/01/09 12:02:00;;;;;;;11.80;4.30;;;6.70;99.90;;;;;;4989897;28;20125;-78
2023/01/09 12:04:31;;;;;;;9.98;4.72;;;7.00;99.90;;;;;;4971511;28;20107;-78
2023/01/09 12:07:18;;;;;;;11.13;5.00;;;6.70;99.90;;;;;;4967867;28;20092;-79
2023/01/09 12:09:56;;;;;;;9.70;4.93;;;6.90;99.90;;;;;;4973307;28;20549;-79
2023/01/09 12:12:26;;;;;;;15.45;4.72;;;7.00;99.90;;;;;;4980512;28;20173;-79
2023/01/09 12:15:17;;;;;;;12.00;4.63;;;7.00;99.90;;;;;;5022286;28;20091;-82
2023/01/09 12:18:14;;;;;;;8.20;4.60;;;6.70;99.90;;;;;;5023178;28;20074;-81
2023/01/09 12:20:50;;;;;;;11.15;4.72;;;6.70;99.90;;;;;;4936804;28;20073;-83
2023/01/09 12:23:42;;;;;;;10.70;4.70;;;6.70;99.90;;;;;;4945327;28;20059;-78
2023/01/09 12:26:14;;;;;;;10.93;6.07;;;7.00;99.90;;;;;;4921018;29;20141;-82
2023/01/09 12:28:57;;;;;;;12.10;5.25;;;7.10;99.90;;;;;;4936577;29;20040;-81
2023/01/09 12:32:27;;;;;;;9.95;5.10;;;6.80;99.90;;;;;;4934040;29;20055;-80
2023/01/09 12:35:18;;;;;;;13.38;5.50;;;6.70;99.90;;;;;;4838014;29;20072;-81
2023/01/09 12:37:49;;;;;;;13.90;5.47;;;6.90;99.90;;;;;;4837948;29;20072;-79
2023/01/09 12:40:15;;;;;;;13.27;6.15;;;7.10;99.90;;;;;;4834358;29;20057;-82
2023/01/09 12:43:18;;;;;;;14.45;6.70;;;7.10;99.90;;;;;;4840092;29;20056;-79
2023/01/09 12:45:49;;;;;;;10.45;6.40;;;7.00;99.90;;;;;;4829416;29;20053;-81
2023/01/09 12:48:36;;;;;;;9.52;5.80;;;6.80;99.90;;;;;;4874783;29;20053;-80
2023/01/09 12:51:18;;;;;;;16.60;6.85;;;7.10;99.90;;;;;;4873454;29;20052;-80
2023/01/09 12:54:16;;;;;;;16.30;6.57;;;7.00;99.90;;;;;;4859352;29;20168;-80
2023/01/09 12:56:51;;;;;;;12.80;6.63;;;6.90;99.90;;;;;;4846841;29;20057;-84
2023/01/09 12:59:28;;;;;;;14.82;6.80;;;7.00;99.90;;;;;;4882065;29;20048;-79
2023/01/09 13:02:09;;;;;;;12.18;6.82;;;7.10;99.90;;;;;;4898959;29;20350;-82
2023/01/09 13:04:49;;;;;;;12.88;6.65;;;6.90;99.90;;;;;;4878154;29;20056;-79
2023/01/09 13:07:23;;;;;;;12.63;7.07;;;7.00;99.90;;;;;;4892471;28;20409;-79
2023/01/09 13:09:56;;;;;;;15.07;6.32;;;6.80;99.90;;;;;;4955509;28;20039;-78
2023/01/09 13:12:24;;;;;;;12.55;7.45;;;6.90;99.90;;;;;;5006557;28;20069;-78
2023/01/09 13:15:01;;;;;;;12.18;7.18;;;7.10;99.90;;;;;;5012328;28;20067;-79
2023/01/09 13:17:39;;;;;;;11.82;7.30;;;7.20;99.90;;;;;;5040423;28;20061;-78
2023/01/09 13:20:37;;;;;;;15.82;7.68;;;7.20;99.90;;;;;;5054009;28;20057;-80
2023/01/09 13:23:05;;;;;;;15.07;7.63;;;7.10;99.90;;;;;;5033943;28;20044;-80
2023/01/09 13:25:36;;;;;;;12.15;7.55;;;6.80;99.90;;;;;;5034260;28;20091;-79
2023/01/09 13:28:22;;;;;;;14.25;7.82;;;7.00;99.90;;;;;;5029729;28;20047;-78
2023/01/09 13:31:15;;;;;;;13.05;8.65;;;7.30;99.90;;;;;;5012332;28;20045;-76